createdAt,value
2018-09-03T00:02:13.451Z,98167.34
2018-09-03T00:04:46.615Z,98170.03
2018-09-03T00:07:19.768Z,98175.92
2018-09-03T00:09:52.950Z,98174.64
2018-09-03T00:12:26.064Z,98167.46
2018-09-03T00:14:59.212Z,98178.83
2018-09-03T00:17:32.319Z,98191.50
2018-09-03T00:20:05.532Z,98202.11
2018-09-03T00:22:38.659Z,98214.94
2018-09-03T00:25:11.816Z,98217.84
2018-09-03T00:27:44.972Z,98219.75
2018-09-03T00:30:18.153Z,98225.03
2018-09-03T00:32:56.888Z,98221.91
2018-09-03T00:35:35.660Z,98216.95
2018-09-03T00:38:14.405Z,98218.47
2018-09-03T00:40:53.169Z,98227.83
2018-09-03T00:43:32.049Z,98230.86
2018-09-03T00:46:10.909Z,98222.88
2018-09-03T00:48:44.057Z,98225.25
2018-09-03T00:51:17.398Z,98221.16
2018-09-03T00:53:50.567Z,98228.27
2018-09-03T00:56:23.697Z,98236.18
2018-09-03T00:58:56.862Z,98227.08
2018-09-03T01:01:30.041Z,98218.09
2018-09-03T01:04:03.217Z,98211.16
2018-09-03T01:06:36.340Z,98215.27
2018-09-03T01:09:09.486Z,98219.14
2018-09-03T01:11:42.676Z,98210.64
2018-09-03T01:14:15.801Z,98204.83
2018-09-03T01:16:48.937Z,98201.50
2018-09-03T01:19:22.039Z,98200.75
2018-09-03T01:21:55.189Z,98195.92
2018-09-03T01:24:28.283Z,98197.17
2018-09-03T01:27:01.417Z,98199.33
2018-09-03T01:29:34.601Z,98196.76
2018-09-03T01:32:07.697Z,98200.75
2018-09-03T01:34:40.802Z,98197.83
2018-09-03T01:37:13.921Z,98195.13
2018-09-03T01:39:47.076Z,98196.00
2018-09-03T01:42:20.208Z,98197.88
2018-09-03T01:44:53.401Z,98190.89
2018-09-03T01:47:26.521Z,98192.55
2018-09-03T01:49:59.673Z,98198.50
2018-09-03T01:52:32.862Z,98189.14
2018-09-03T01:55:06.012Z,98186.23
2018-09-03T01:57:39.133Z,98181.16
2018-09-03T02:00:12.266Z,98177.88
2018-09-03T02:02:45.424Z,98169.80
2018-09-03T02:05:18.568Z,98164.64
2018-09-03T02:07:51.742Z,98163.35
2018-09-03T02:10:24.953Z,98163.47
2018-09-03T02:12:58.069Z,98154.86
2018-09-03T02:15:31.275Z,98157.02
2018-09-03T02:18:04.497Z,98145.88
2018-09-03T02:20:37.690Z,98148.95
2018-09-03T02:23:10.865Z,98144.95
2018-09-03T02:25:43.974Z,98145.08
2018-09-03T02:28:17.104Z,98150.69
2018-09-03T02:30:50.243Z,98147.88
2018-09-03T02:33:23.385Z,98144.13
2018-09-03T02:35:56.598Z,98139.31
2018-09-03T02:38:29.664Z,98144.42
2018-09-03T02:41:02.776Z,98145.08
2018-09-03T02:43:35.939Z,98141.50
2018-09-03T02:46:09.117Z,98145.30
2018-09-03T02:48:42.265Z,98141.89
2018-09-03T02:51:15.418Z,98148.33
2018-09-03T02:53:48.557Z,98144.88
2018-09-03T02:56:21.702Z,98134.86
2018-09-03T02:58:54.813Z,98129.25
2018-09-03T03:01:27.952Z,98128.75
2018-09-03T03:04:01.133Z,98131.07
2018-09-03T03:06:34.294Z,98135.39
2018-09-03T03:09:08.665Z,98130.23
2018-09-03T03:11:41.845Z,98134.98
2018-09-03T03:14:14.925Z,98128.88
2018-09-03T03:16:48.066Z,98125.00
2018-09-03T03:19:21.189Z,98131.53
2018-09-03T03:21:54.277Z,98130.77
2018-09-03T03:24:27.495Z,98132.41
2018-09-03T03:27:00.653Z,98131.23
2018-09-03T03:29:33.775Z,98128.73
2018-09-03T03:32:06.960Z,98130.06
2018-09-03T03:34:40.180Z,98119.70
2018-09-03T03:37:13.298Z,98115.08
2018-09-03T03:39:46.416Z,98109.38
2018-09-03T03:42:19.637Z,98107.68
2018-09-03T03:44:52.833Z,98109.42
2018-09-03T03:47:25.932Z,98102.45
2018-09-03T03:49:59.177Z,98096.53
2018-09-03T03:52:32.279Z,98094.82
2018-09-03T03:55:05.884Z,98091.38
2018-09-03T03:57:38.996Z,98085.22
2018-09-03T04:00:12.167Z,98095.42
2018-09-03T04:02:45.292Z,98093.19
2018-09-03T04:05:18.520Z,98094.13
2018-09-03T04:07:51.616Z,98099.22
2018-09-03T04:10:24.725Z,98094.97
2018-09-03T04:13:02.369Z,98097.70
2018-09-03T04:15:35.833Z,98094.59
2018-09-03T04:18:08.938Z,98095.95
2018-09-03T04:20:42.050Z,98096.48
2018-09-03T04:23:15.288Z,98098.31
2018-09-03T04:25:48.405Z,98099.22
2018-09-03T04:28:21.573Z,98091.91
2018-09-03T04:30:54.774Z,98091.86
2018-09-03T04:33:27.865Z,98092.88
2018-09-03T04:36:01.444Z,98094.05
2018-09-03T04:38:34.601Z,98095.42
2018-09-03T04:41:07.824Z,98099.29
2018-09-03T04:43:40.962Z,98103.20
2018-09-03T04:46:14.152Z,98108.02
2018-09-03T04:48:47.313Z,98106.09
2018-09-03T04:51:20.430Z,98101.00
2018-09-03T04:53:53.513Z,98098.88
2018-09-03T04:56:27.231Z,98099.56
2018-09-03T04:59:00.400Z,98101.23
2018-09-03T05:01:33.746Z,98102.03
2018-09-03T05:04:06.914Z,98100.28
2018-09-03T05:06:40.037Z,98104.98
2018-09-03T05:09:13.152Z,98104.16
2018-09-03T05:11:46.402Z,98099.76
2018-09-03T05:14:19.525Z,98102.41
2018-09-03T05:16:52.843Z,98098.23
2018-09-03T05:19:25.974Z,98106.62
2018-09-03T05:21:59.100Z,98107.80
2018-09-03T05:24:32.228Z,98096.98
2018-09-03T05:27:05.418Z,98105.64
2018-09-03T05:29:38.627Z,98108.33
2018-09-03T05:32:11.757Z,98105.75
2018-09-03T05:34:44.937Z,98103.33
2018-09-03T05:37:18.052Z,98105.98
2018-09-03T05:39:51.244Z,98115.05
2018-09-03T05:42:24.325Z,98122.79
2018-09-03T05:44:57.453Z,98122.45
2018-09-03T05:47:30.557Z,98118.69
2018-09-03T05:50:03.935Z,98118.58
2018-09-03T05:52:37.039Z,98108.71
2018-09-03T05:55:10.304Z,98106.20
2018-09-03T05:57:43.437Z,98107.19
2018-09-03T06:00:16.594Z,98105.48
2018-09-03T06:02:49.703Z,98100.51
2018-09-03T06:05:22.861Z,98107.53
2018-09-03T06:07:56.033Z,98110.11
2018-09-03T06:10:29.227Z,98112.84
2018-09-03T06:13:02.371Z,98112.95
2018-09-03T06:15:35.559Z,98109.98
2018-09-03T06:18:08.698Z,98115.41
2018-09-03T06:20:41.849Z,98115.34
2018-09-03T06:23:15.017Z,98116.44
2018-09-03T06:25:48.179Z,98104.02
2018-09-03T06:28:21.305Z,98105.42
2018-09-03T06:30:54.470Z,98102.16
2018-09-03T06:33:27.636Z,98110.64
2018-09-03T06:36:01.181Z,98119.37
2018-09-03T06:38:34.301Z,98111.59
2018-09-03T06:41:07.497Z,98109.00
2018-09-03T06:43:40.645Z,98111.70
2018-09-03T06:46:13.793Z,98116.86
2018-09-03T06:48:47.149Z,98111.80
2018-09-03T06:51:20.250Z,98113.86
2018-09-03T06:53:53.463Z,98118.67
2018-09-03T06:56:26.572Z,98113.30
2018-09-03T06:58:59.756Z,98115.11
2018-09-03T07:01:32.985Z,98105.17
2018-09-03T07:04:06.234Z,98103.95
2018-09-03T07:06:39.390Z,98099.62
2018-09-03T07:09:12.481Z,98094.42
2018-09-03T07:11:45.698Z,98089.13
2018-09-03T07:14:18.809Z,98086.14
2018-09-03T07:16:51.953Z,98090.64
2018-09-03T07:19:25.478Z,98088.87
2018-09-03T07:21:58.729Z,98095.69
2018-09-03T07:24:32.264Z,98091.26
2018-09-03T07:27:05.514Z,98084.31
2018-09-03T07:29:38.905Z,98095.94
2018-09-03T07:32:12.926Z,98096.01
2018-09-03T07:34:46.078Z,98095.94
2018-09-03T07:37:19.251Z,98094.55
2018-09-03T07:39:52.416Z,98097.59
2018-09-03T07:42:25.615Z,98104.89
2018-09-03T07:44:58.712Z,98101.31
2018-09-03T07:47:31.919Z,98098.88
2018-09-03T07:50:05.298Z,98098.33
2018-09-03T07:52:38.493Z,98101.36
2018-09-03T07:55:11.622Z,98098.58
2018-09-03T07:57:44.780Z,98099.77
2018-09-03T08:00:17.954Z,98104.93
2018-09-03T08:02:51.069Z,98107.52
2018-09-03T08:05:24.332Z,98114.56
2018-09-03T08:07:57.582Z,98112.02
2018-09-03T08:10:30.779Z,98109.02
2018-09-03T08:13:03.936Z,98113.89
2018-09-03T08:15:37.064Z,98117.20
2018-09-03T08:18:10.221Z,98111.56
2018-09-03T08:20:43.428Z,98109.70
2018-09-03T08:23:16.634Z,98101.33
2018-09-03T08:25:49.754Z,98100.52
2018-09-03T08:28:22.997Z,98100.23
2018-09-03T08:30:56.186Z,98100.06
2018-09-03T08:33:29.360Z,98101.94
2018-09-03T08:36:02.683Z,98097.98
2018-09-03T08:38:35.820Z,98095.77
2018-09-03T08:41:09.368Z,98090.77
2018-09-03T08:43:42.530Z,98090.59
2018-09-03T08:46:15.730Z,98086.52
2018-09-03T08:48:48.889Z,98086.44
2018-09-03T08:51:22.024Z,98081.59
2018-09-03T08:53:55.269Z,98079.06
2018-09-03T08:56:28.515Z,98081.32
2018-09-03T08:59:01.655Z,98088.22
2018-09-03T09:01:34.803Z,98083.68
2018-09-03T09:04:08.025Z,98086.27
2018-09-03T09:06:41.191Z,98091.00
2018-09-03T09:09:14.437Z,98088.86
2018-09-03T09:11:47.654Z,98091.78
2018-09-03T09:14:20.807Z,98083.83
2018-09-03T09:16:53.898Z,98092.02
2018-09-03T09:19:27.226Z,98087.94
2018-09-03T09:22:00.661Z,98087.63
2018-09-03T09:24:34.157Z,98084.19
2018-09-03T09:27:07.403Z,98084.25
2018-09-03T09:29:40.703Z,98082.20
2018-09-03T09:32:14.005Z,98086.08
2018-09-03T09:34:47.277Z,98078.73
2018-09-03T09:37:20.455Z,98081.66
2018-09-03T09:39:53.638Z,98077.77
2018-09-03T09:42:26.874Z,98076.53
2018-09-03T09:45:00.003Z,98078.98
2018-09-03T09:47:33.186Z,98072.56
2018-09-03T09:50:06.362Z,98069.41
2018-09-03T09:52:39.538Z,98069.12
2018-09-03T09:55:12.762Z,98069.34
2018-09-03T09:57:45.897Z,98074.28
2018-09-03T10:00:24.673Z,98069.18
2018-09-03T10:02:57.956Z,98070.03
2018-09-03T10:05:31.151Z,98062.41
2018-09-03T10:08:04.362Z,98060.81
2018-09-03T10:10:37.525Z,98060.73
2018-09-03T10:13:10.734Z,98068.52
2018-09-03T10:15:43.865Z,98065.02
2018-09-03T10:18:17.102Z,98065.59
2018-09-03T10:20:50.341Z,98064.22
2018-09-03T10:23:23.557Z,98066.39
2018-09-03T10:25:56.749Z,98067.87
2018-09-03T10:28:30.014Z,98060.33
2018-09-03T10:31:03.193Z,98064.34
2018-09-03T10:33:36.382Z,98068.09
2018-09-03T10:36:09.571Z,98063.78
2018-09-03T10:38:42.755Z,98065.42
2018-09-03T10:41:15.945Z,98073.55
2018-09-03T10:43:49.079Z,98071.77
2018-09-03T10:46:22.287Z,98068.44
2018-09-03T10:48:55.515Z,98067.36
2018-09-03T10:51:28.706Z,98065.03
2018-09-03T10:54:01.837Z,98072.38
2018-09-03T10:56:35.031Z,98073.02
2018-09-03T10:59:08.184Z,98070.42
2018-09-03T11:01:41.376Z,98072.22
2018-09-03T11:04:14.562Z,98072.93
2018-09-03T11:06:47.707Z,98077.51
2018-09-03T11:09:20.932Z,98074.39
2018-09-03T11:11:54.162Z,98083.52
2018-09-03T11:14:27.358Z,98082.98
2018-09-03T11:17:00.484Z,98071.02
2018-09-03T11:19:36.933Z,98071.67
2018-09-03T11:22:10.107Z,98064.23
2018-09-03T11:24:43.298Z,98061.77
2018-09-03T11:27:16.474Z,98059.16
2018-09-03T11:29:49.630Z,98062.04
2018-09-03T11:32:22.812Z,98057.70
2018-09-03T11:34:56.039Z,98051.81
2018-09-03T11:37:29.199Z,98054.25
2018-09-03T11:40:02.729Z,98054.08
2018-09-03T11:42:35.920Z,98058.00
2018-09-03T11:45:09.127Z,98052.95
2018-09-03T11:47:42.836Z,98056.38
2018-09-03T11:50:16.853Z,98061.08
2018-09-03T11:52:50.146Z,98061.95
2018-09-03T11:55:23.346Z,98059.17
2018-09-03T11:57:56.613Z,98065.41
2018-09-03T12:00:30.849Z,98059.65
2018-09-03T12:03:04.319Z,98057.69
2018-09-03T12:05:37.665Z,98058.05
2018-09-03T12:08:10.834Z,98060.10
2018-09-03T12:10:44.099Z,98060.64
2018-09-03T12:13:17.299Z,98055.73
2018-09-03T12:16:23.278Z,98055.95
2018-09-03T12:18:58.034Z,98056.38
2018-09-03T12:21:31.311Z,98062.28
2018-09-03T12:24:04.543Z,98062.45
2018-09-03T12:26:37.764Z,98050.18
2018-09-03T12:29:10.963Z,98052.95
2018-09-03T12:31:44.241Z,98059.94
2018-09-03T12:34:17.404Z,98057.37
2018-09-03T12:36:50.637Z,98058.13
2018-09-03T12:39:23.852Z,98053.66
2018-09-03T12:41:57.131Z,98050.78
2018-09-03T12:44:30.306Z,98055.38
2018-09-03T12:47:03.496Z,98052.66
2018-09-03T12:49:36.700Z,98044.42
2018-09-03T12:52:16.621Z,98036.73
2018-09-03T12:54:49.840Z,98042.27
2018-09-03T12:57:23.113Z,98045.87
2018-09-03T13:00:05.147Z,98037.11
2018-09-03T13:02:29.474Z,98031.08
2018-09-03T13:05:02.689Z,98028.10
2018-09-03T13:07:35.996Z,98027.41
2018-09-03T13:10:09.169Z,98029.67
2018-09-03T13:12:42.524Z,98033.31
2018-09-03T13:15:15.610Z,98030.84
2018-09-03T13:17:48.777Z,98027.84
2018-09-03T13:20:21.994Z,98024.81
2018-09-03T13:22:55.121Z,98013.48
2018-09-03T13:25:28.309Z,98010.67
2018-09-03T13:28:01.489Z,98006.25
2018-09-03T13:30:34.804Z,98007.72
2018-09-03T13:33:07.903Z,97996.88
2018-09-03T13:35:41.138Z,97995.53
2018-09-03T13:38:14.315Z,97994.37
2018-09-03T13:40:47.617Z,97990.08
2018-09-03T13:43:20.806Z,97994.06
2018-09-03T13:45:54.233Z,97995.89
2018-09-03T13:48:27.406Z,98004.30
2018-09-03T13:51:00.561Z,98000.08
2018-09-03T13:53:33.761Z,97997.20
2018-09-03T13:56:06.960Z,97994.28
2018-09-03T13:58:40.154Z,97999.23
2018-09-03T14:01:13.334Z,97994.61
2018-09-03T14:03:46.504Z,97994.78
2018-09-03T14:06:19.845Z,97992.75
2018-09-03T14:08:53.059Z,97987.34
2018-09-03T14:11:26.297Z,97980.52
2018-09-03T14:13:59.557Z,97986.75
2018-09-03T14:16:32.810Z,97981.48
2018-09-03T14:19:06.050Z,97980.28
2018-09-03T14:21:39.297Z,97978.68
2018-09-03T14:24:12.444Z,97979.02
2018-09-03T14:26:45.869Z,97980.38
2018-09-03T14:29:19.042Z,97978.25
2018-09-03T14:31:52.257Z,97972.90
2018-09-03T14:34:25.430Z,97970.62
2018-09-03T14:36:58.605Z,97967.98
2018-09-03T14:39:31.749Z,97971.86
2018-09-03T14:42:04.966Z,97964.62
2018-09-03T14:44:38.142Z,97967.05
2018-09-03T14:47:11.360Z,97961.04
2018-09-03T14:49:44.671Z,97962.05
2018-09-03T14:52:17.865Z,97955.97
2018-09-03T14:54:51.060Z,97957.77
2018-09-03T14:57:24.279Z,97958.73
2018-09-03T14:59:57.530Z,97959.55
2018-09-03T15:02:30.704Z,97964.88
2018-09-03T15:05:03.941Z,97964.91
2018-09-03T15:07:37.108Z,97961.88
2018-09-03T15:10:10.355Z,97968.79
2018-09-03T15:12:43.516Z,97968.05
2018-09-03T15:15:16.737Z,97967.64
2018-09-03T15:17:50.667Z,97961.25
2018-09-03T15:20:23.885Z,97961.68
2018-09-03T15:22:57.033Z,97956.32
2018-09-03T15:25:30.248Z,97961.53
2018-09-03T15:28:03.418Z,97960.63
2018-09-03T15:30:36.645Z,97959.36
2018-09-03T15:33:09.801Z,97966.37
2018-09-03T15:35:43.053Z,97965.78
2018-09-03T15:38:16.247Z,97964.95
2018-09-03T15:40:49.533Z,97964.08
2018-09-03T15:43:22.836Z,97965.78
2018-09-03T15:45:56.160Z,97965.13
2018-09-03T15:48:29.424Z,97967.84
2018-09-03T15:51:02.877Z,97965.97
2018-09-03T15:53:36.247Z,97960.66
2018-09-03T15:56:09.525Z,97949.34
2018-09-03T15:58:44.505Z,97953.25
2018-09-03T16:01:17.683Z,97954.61
2018-09-03T16:03:50.998Z,97949.83
2018-09-03T16:06:24.133Z,97952.91
2018-09-03T16:08:57.347Z,97951.88
2018-09-03T16:11:30.557Z,97960.17
2018-09-03T16:14:03.819Z,97951.80
2018-09-03T16:16:37.095Z,97955.45
2018-09-03T16:19:10.273Z,97951.95
2018-09-03T16:21:43.483Z,97953.66
2018-09-03T16:24:16.681Z,97946.70
2018-09-03T16:26:49.957Z,97951.11
2018-09-03T16:29:23.173Z,97955.45
2018-09-03T16:31:56.362Z,97953.22
2018-09-03T16:34:29.573Z,97953.46
2018-09-03T16:37:02.770Z,97951.92
2018-09-03T16:39:35.985Z,97947.48
2018-09-03T16:42:09.344Z,97954.32
2018-09-03T16:44:42.462Z,97957.28
2018-09-03T16:47:15.648Z,97962.77
2018-09-03T16:49:48.894Z,97968.34
2018-09-03T16:52:22.134Z,97962.22
2018-09-03T16:54:55.501Z,97967.77
2018-09-03T16:57:29.375Z,97968.52
2018-09-03T17:00:03.482Z,97967.61
2018-09-03T17:02:36.794Z,97970.17
2018-09-03T17:05:09.749Z,97968.73
2018-09-03T17:07:43.202Z,97972.13
2018-09-03T17:10:16.109Z,97973.37
2018-09-03T17:12:49.414Z,97973.38
2018-09-03T17:15:22.584Z,97973.81
2018-09-03T17:17:55.803Z,97974.59
2018-09-03T17:20:29.171Z,97970.64
2018-09-03T17:23:02.401Z,97973.59
2018-09-03T17:25:36.622Z,97975.23
2018-09-03T17:28:09.928Z,97978.52
2018-09-03T17:30:47.363Z,97977.55
2018-09-03T17:33:23.861Z,97982.60
2018-09-03T17:36:00.678Z,97983.84
2018-09-03T17:38:35.893Z,97985.05
2018-09-03T17:41:10.170Z,97981.86
2018-09-03T17:43:44.449Z,97981.70
2018-09-03T17:46:17.783Z,97979.44
2018-09-03T17:48:51.122Z,97981.06
2018-09-03T17:51:24.337Z,97985.28
2018-09-03T17:53:57.708Z,97986.89
2018-09-03T17:56:33.637Z,97992.41
2018-09-03T17:59:09.726Z,97997.08
2018-09-03T18:01:46.571Z,97994.33
2018-09-03T18:04:24.424Z,97989.55
2018-09-03T18:07:01.769Z,97991.53
2018-09-03T18:09:38.156Z,97982.39
2018-09-03T18:12:15.019Z,97984.92
2018-09-03T18:14:48.388Z,97992.22
2018-09-03T18:17:21.602Z,98000.39
2018-09-03T18:19:54.892Z,98005.20
2018-09-03T18:22:28.155Z,98009.22
2018-09-03T18:25:01.624Z,98012.48
2018-09-03T18:27:34.856Z,98019.22
2018-09-03T18:30:08.192Z,98015.44
2018-09-03T18:32:41.713Z,98013.52
2018-09-03T18:35:14.989Z,98017.84
2018-09-03T18:37:48.291Z,98030.19
2018-09-03T18:40:22.593Z,98035.13
2018-09-03T18:42:57.049Z,98042.73
2018-09-03T18:45:30.482Z,98055.41
2018-09-03T18:48:03.943Z,98058.02
2018-09-03T18:50:37.476Z,98054.90
2018-09-03T18:53:11.070Z,98060.83
2018-09-03T18:55:44.673Z,98062.83
2018-09-03T18:58:18.349Z,98058.11
2018-09-03T19:00:51.945Z,98059.80
2018-09-03T19:03:25.219Z,98062.31
2018-09-03T19:05:58.853Z,98062.73
2018-09-03T19:08:32.463Z,98068.69
2018-09-03T19:11:06.149Z,98069.98
2018-09-03T19:13:39.899Z,98069.11
2018-09-03T19:16:13.233Z,98071.72
2018-09-03T19:18:46.907Z,98073.30
2018-09-03T19:21:20.468Z,98072.37
2018-09-03T19:23:53.794Z,98063.94
2018-09-03T19:26:27.333Z,98066.68
2018-09-03T19:29:00.635Z,98064.26
2018-09-03T19:31:33.854Z,98068.42
2018-09-03T19:34:07.172Z,98064.03
2018-09-03T19:36:47.206Z,98068.81
2018-09-03T19:39:20.460Z,98062.96
2018-09-03T19:41:53.814Z,98063.70
2018-09-03T19:44:27.056Z,98062.09
2018-09-03T19:47:00.336Z,98067.78
2018-09-03T19:49:33.571Z,98061.98
2018-09-03T19:52:06.819Z,98062.54
2018-09-03T19:54:40.109Z,98054.27
2018-09-03T19:57:13.377Z,98062.54
2018-09-03T19:59:46.901Z,98053.30
2018-09-03T20:02:20.140Z,98052.75
2018-09-03T20:04:53.481Z,98055.94
2018-09-03T20:07:26.723Z,98055.73
2018-09-03T20:09:59.975Z,98058.52
2018-09-03T20:12:33.207Z,98064.46
2018-09-03T20:15:08.598Z,98064.87
2018-09-03T20:17:41.813Z,98059.97
2018-09-03T20:20:15.023Z,98061.64
2018-09-03T20:22:48.497Z,98056.47
2018-09-03T20:25:21.691Z,98058.67
2018-09-03T20:27:55.060Z,98062.62
2018-09-03T20:30:28.283Z,98061.36
2018-09-03T20:33:01.536Z,98065.23
2018-09-03T20:35:34.687Z,98063.14
2018-09-03T20:38:07.874Z,98063.59
2018-09-03T20:40:41.039Z,98063.59
2018-09-03T20:43:14.318Z,98058.00
2018-09-03T20:45:47.688Z,98062.30
2018-09-03T20:48:21.094Z,98060.88
2018-09-03T20:50:54.480Z,98060.38
2018-09-03T20:53:27.673Z,98058.73
2018-09-03T20:56:01.253Z,98056.93
2018-09-03T20:58:34.554Z,98062.65
2018-09-03T21:01:07.717Z,98063.48
2018-09-03T21:03:40.998Z,98061.95
2018-09-03T21:06:14.157Z,98061.59
2018-09-03T21:08:47.388Z,98055.23
2018-09-03T21:11:20.603Z,98053.62
2018-09-03T21:13:53.827Z,98058.10
2018-09-03T21:16:27.097Z,98048.57
2018-09-03T21:19:00.343Z,98048.34
2018-09-03T21:21:33.546Z,98045.00
2018-09-03T21:24:07.527Z,98048.63
2018-09-03T21:26:40.741Z,98043.91
2018-09-03T21:29:14.074Z,98043.59
2018-09-03T21:31:47.364Z,98044.84
2018-09-03T21:34:20.624Z,98046.95
2018-09-03T21:36:53.829Z,98040.07
2018-09-03T21:39:27.002Z,98044.47
2018-09-03T21:42:00.323Z,98046.95
2018-09-03T21:44:33.551Z,98041.26
2018-09-03T21:47:06.842Z,98037.80
2018-09-03T21:49:40.048Z,98038.58
2018-09-03T21:52:13.277Z,98034.77
2018-09-03T21:54:46.481Z,98036.58
2018-09-03T21:57:19.660Z,98035.32
2018-09-03T21:59:52.844Z,98041.64
2018-09-03T22:02:26.097Z,98036.58
2018-09-03T22:04:59.479Z,98045.66
2018-09-03T22:07:32.628Z,98043.07
2018-09-03T22:10:05.862Z,98043.91
2018-09-03T22:12:39.065Z,98034.80
2018-09-03T22:15:12.222Z,98040.88
2018-09-03T22:17:45.413Z,98039.48
2018-09-03T22:20:18.637Z,98031.73
2018-09-03T22:22:51.817Z,98028.20
2018-09-03T22:25:24.958Z,98029.84
2018-09-03T22:27:58.105Z,98034.56
2018-09-03T22:30:31.381Z,98027.72
2018-09-03T22:33:04.617Z,98026.19
2018-09-03T22:35:37.753Z,98029.20
2018-09-03T22:38:10.884Z,98027.48
2018-09-03T22:40:44.068Z,98029.13
2018-09-03T22:43:17.257Z,98023.92
2018-09-03T22:45:50.486Z,98025.98
2018-09-03T22:48:23.649Z,98029.09
2018-09-03T22:50:56.859Z,98027.31
2018-09-03T22:53:30.174Z,98029.80
2018-09-03T22:56:03.335Z,98030.14
2018-09-03T22:58:36.518Z,98032.27
2018-09-03T23:04:14.462Z,98031.58
2018-09-03T23:06:47.653Z,98031.96
2018-09-03T23:09:20.801Z,98034.44
2018-09-03T23:11:53.984Z,98038.31
2018-09-03T23:14:27.268Z,98034.23
2018-09-03T23:17:00.429Z,98044.66
2018-09-03T23:19:33.577Z,98047.23
2018-09-03T23:22:06.771Z,98046.36
2018-09-03T23:24:39.904Z,98040.67
2018-09-03T23:27:13.153Z,98036.53
2018-09-03T23:29:46.329Z,98036.91
2018-09-03T23:32:19.568Z,98031.78
2018-09-03T23:34:52.683Z,98027.04
2018-09-03T23:37:25.861Z,98023.72
2018-09-03T23:40:06.141Z,98020.16
2018-09-03T23:42:39.297Z,98025.84
2018-09-03T23:45:12.408Z,98022.36
2018-09-03T23:47:45.552Z,98017.95
2018-09-03T23:50:18.647Z,98020.37
2018-09-03T23:52:51.793Z,98025.69
2018-09-03T23:55:25.015Z,98022.43
2018-09-03T23:57:58.191Z,98019.78
